Time;durP1;ratioP1;P1;durP2;ratioP2;P2;SDS_P1;SDS_P2;PMS_P1;PMS_P2;Temp;Humidity;BMP_temperature;BMP_pressure;BME280_temperature;BME280_humidity;BME280_pressure;Samples;Min_cycle;Max_cycle;Signal;HPM_P1;HPM_P2
2023/04/15 00:00:55;;;;;;;22.48;10.07;;;;;;;;;;5057194;27;90255;-73
2023/04/15 00:03:22;;;;;;;20.52;9.23;;;;;;;;;;5040409;27;90454;-74
2023/04/15 00:05:49;;;;;;;22.25;9.23;;;;;;;;;;5062366;27;88567;-73
2023/04/15 00:08:15;;;;;;;17.52;9.68;;;;;;;;;;5060678;27;91250;-74
2023/04/15 00:10:43;;;;;;;16.50;8.02;;;;;;;;;;5041609;27;88868;-73
2023/04/15 00:13:09;;;;;;;16.17;8.90;;;;;;;;;;5059790;27;87947;-73
2023/04/15 00:15:36;;;;;;;24.73;7.70;;;;;;;;;;5058584;27;88904;-73
2023/04/15 00:18:03;;;;;;;16.88;7.53;;;;;;;;;;5070033;27;88734;-73
2023/04/15 00:20:30;;;;;;;17.98;8.07;;;;;;;;;;5074604;27;92082;-74
2023/04/15 00:22:57;;;;;;;18.33;6.90;;;;;;;;;;5077251;27;88068;-74
2023/04/15 00:25:23;;;;;;;11.70;6.65;;;;;;;;;;5058281;27;88808;-73
2023/04/15 00:27:50;;;;;;;14.13;7.18;;;;;;;;;;5074845;27;89325;-73
2023/04/15 00:30:16;;;;;;;17.05;7.05;;;;;;;;;;5075021;27;88487;-73
2023/04/15 00:32:43;;;;;;;21.23;7.07;;;;;;;;;;5077909;27;89052;-73
2023/04/15 00:35:10;;;;;;;11.70;6.70;;;;;;;;;;5077960;27;87498;-73
2023/04/15 00:37:36;;;;;;;14.70;5.85;;;;;;;;;;5067224;27;88280;-74
2023/04/15 00:40:05;;;;;;;14.57;6.60;;;;;;;;;;5076846;27;88658;-74
2023/04/15 00:42:31;;;;;;;11.30;6.57;;;;;;;;;;5070926;27;88795;-74
2023/04/15 00:44:58;;;;;;;13.10;5.88;;;;;;;;;;5076474;27;89297;-73
2023/04/15 00:47:25;;;;;;;17.30;7.20;;;;;;;;;;5065543;27;89309;-73
2023/04/15 00:49:51;;;;;;;19.35;7.10;;;;;;;;;;5080421;27;88038;-74
2023/04/15 00:52:17;;;;;;;8.45;6.22;;;;;;;;;;5072022;27;89022;-73
2023/04/15 00:54:44;;;;;;;16.60;6.68;;;;;;;;;;5078725;27;89603;-73
2023/04/15 00:57:10;;;;;;;11.95;6.30;;;;;;;;;;5077265;27;89346;-73
2023/04/15 00:59:37;;;;;;;9.40;6.25;;;;;;;;;;5075372;27;89790;-76
2023/04/15 01:02:04;;;;;;;13.32;6.72;;;;;;;;;;5077782;27;87993;-73
2023/04/15 01:04:31;;;;;;;12.55;6.68;;;;;;;;;;5078457;27;88919;-73
2023/04/15 01:06:57;;;;;;;13.75;5.80;;;;;;;;;;5078085;27;90091;-76
2023/04/15 01:09:24;;;;;;;12.82;6.07;;;;;;;;;;5077557;27;89691;-75
2023/04/15 01:11:51;;;;;;;12.20;6.53;;;;;;;;;;5076713;27;89844;-75
2023/04/15 01:14:18;;;;;;;14.65;6.55;;;;;;;;;;5074218;27;89146;-75
2023/04/15 01:16:44;;;;;;;13.82;6.00;;;;;;;;;;5063560;27;87968;-75
2023/04/15 01:19:13;;;;;;;11.93;6.43;;;;;;;;;;5059465;27;91369;-75
2023/04/15 01:21:39;;;;;;;13.23;6.50;;;;;;;;;;5077950;27;88032;-74
2023/04/15 01:24:07;;;;;;;15.23;6.95;;;;;;;;;;5068431;27;89007;-75
2023/04/15 01:26:34;;;;;;;13.85;6.65;;;;;;;;;;5057342;27;89338;-74
2023/04/15 01:29:01;;;;;;;11.02;5.97;;;;;;;;;;5048228;27;88290;-74
2023/04/15 01:31:28;;;;;;;14.80;6.43;;;;;;;;;;5079988;27;88711;-75
2023/04/15 01:33:54;;;;;;;12.60;6.20;;;;;;;;;;5075932;27;88955;-74
2023/04/15 01:36:20;;;;;;;11.75;6.72;;;;;;;;;;5055134;27;89087;-75
2023/04/15 01:38:47;;;;;;;11.27;6.72;;;;;;;;;;5067711;27;89017;-74
2023/04/15 01:41:13;;;;;;;16.88;6.65;;;;;;;;;;5075944;27;88020;-74
2023/04/15 01:43:40;;;;;;;12.30;6.00;;;;;;;;;;5072510;27;89948;-74
2023/04/15 01:46:07;;;;;;;13.85;6.22;;;;;;;;;;5057949;27;88782;-74
2023/04/15 01:48:33;;;;;;;9.32;6.55;;;;;;;;;;5077663;27;88938;-74
2023/04/15 01:51:00;;;;;;;13.57;6.53;;;;;;;;;;5077303;27;89660;-74
2023/04/15 01:53:26;;;;;;;12.48;7.13;;;;;;;;;;5078406;27;89389;-74
2023/04/15 01:55:53;;;;;;;16.38;7.20;;;;;;;;;;5057625;27;89893;-74
2023/04/15 01:58:19;;;;;;;15.27;6.53;;;;;;;;;;5069364;27;89335;-75
2023/04/15 02:00:46;;;;;;;11.00;6.38;;;;;;;;;;5076116;27;88823;-74
2023/04/15 02:03:12;;;;;;;15.85;7.18;;;;;;;;;;5066910;27;88529;-74
2023/04/15 02:05:38;;;;;;;13.32;6.05;;;;;;;;;;5067138;27;88952;-74
2023/04/15 02:08:05;;;;;;;9.20;6.20;;;;;;;;;;5071605;27;88009;-74
2023/04/15 02:10:31;;;;;;;13.45;6.18;;;;;;;;;;5077365;27;89079;-74
2023/04/15 02:12:57;;;;;;;13.18;6.88;;;;;;;;;;5076460;27;88250;-74
2023/04/15 02:15:24;;;;;;;7.95;6.90;;;;;;;;;;5080292;27;87972;-74
2023/04/15 02:17:51;;;;;;;10.75;6.13;;;;;;;;;;5071953;27;93035;-74
2023/04/15 02:20:18;;;;;;;12.13;6.38;;;;;;;;;;5076599;27;88704;-74
2023/04/15 02:22:46;;;;;;;20.10;6.03;;;;;;;;;;5076021;27;89720;-74
2023/04/15 02:25:12;;;;;;;13.93;6.03;;;;;;;;;;5074591;27;88929;-74
2023/04/15 02:27:39;;;;;;;13.00;6.13;;;;;;;;;;5067210;27;88072;-74
2023/04/15 02:30:06;;;;;;;10.93;5.95;;;;;;;;;;5074574;27;90300;-74
2023/04/15 02:32:32;;;;;;;14.07;6.25;;;;;;;;;;5048749;27;88606;-74
2023/04/15 02:35:06;;;;;;;15.50;7.18;;;;;;;;;;5069130;27;88023;-74
2023/04/15 02:37:35;;;;;;;10.85;6.43;;;;;;;;;;5076276;27;91009;-74
2023/04/15 02:40:03;;;;;;;11.30;6.70;;;;;;;;;;5072328;27;88048;-74
2023/04/15 02:42:30;;;;;;;15.02;6.22;;;;;;;;;;5024960;27;89686;-74
2023/04/15 02:44:57;;;;;;;22.83;6.13;;;;;;;;;;5033877;28;90863;-75
2023/04/15 02:47:23;;;;;;;16.17;6.15;;;;;;;;;;5027878;27;88072;-74
2023/04/15 02:49:50;;;;;;;8.73;5.97;;;;;;;;;;5036486;27;88072;-74
2023/04/15 02:52:16;;;;;;;11.30;5.90;;;;;;;;;;5035782;27;88991;-74
2023/04/15 02:54:42;;;;;;;11.02;6.20;;;;;;;;;;5027131;28;88268;-74
2023/04/15 02:57:10;;;;;;;16.08;6.60;;;;;;;;;;5035259;27;89197;-74
2023/04/15 02:59:37;;;;;;;9.80;6.13;;;;;;;;;;5026947;27;89078;-74
2023/04/15 03:02:06;;;;;;;10.48;6.60;;;;;;;;;;5036862;27;91099;-74
2023/04/15 03:04:33;;;;;;;14.68;6.70;;;;;;;;;;5035148;28;89045;-74
2023/04/15 03:07:00;;;;;;;9.45;5.90;;;;;;;;;;5030046;28;89304;-74
2023/04/15 03:09:26;;;;;;;12.25;6.50;;;;;;;;;;5031923;27;90096;-74
2023/04/15 03:11:53;;;;;;;10.48;6.40;;;;;;;;;;5036368;28;92172;-74
2023/04/15 03:14:20;;;;;;;10.50;5.85;;;;;;;;;;5031781;27;88244;-74
2023/04/15 03:16:46;;;;;;;8.93;5.72;;;;;;;;;;5027517;27;88720;-74
2023/04/15 03:19:12;;;;;;;9.38;6.05;;;;;;;;;;5035459;27;89358;-74
2023/04/15 03:21:39;;;;;;;14.57;6.32;;;;;;;;;;5032973;28;87929;-74
2023/04/15 03:24:05;;;;;;;9.93;5.47;;;;;;;;;;5033256;28;88981;-73
2023/04/15 03:26:32;;;;;;;8.80;6.40;;;;;;;;;;5034834;28;88654;-74
2023/04/15 03:28:58;;;;;;;17.60;7.40;;;;;;;;;;5034745;27;88022;-74
2023/04/15 03:31:25;;;;;;;11.07;5.82;;;;;;;;;;5035282;28;91995;-73
2023/04/15 03:33:51;;;;;;;14.38;6.75;;;;;;;;;;5034945;27;88769;-74
2023/04/15 03:36:18;;;;;;;13.23;6.47;;;;;;;;;;5030578;28;90541;-74
2023/04/15 03:38:44;;;;;;;9.80;5.85;;;;;;;;;;5033345;28;88057;-73
2023/04/15 03:41:10;;;;;;;11.05;6.70;;;;;;;;;;5033811;28;88598;-73
2023/04/15 03:43:37;;;;;;;10.45;6.90;;;;;;;;;;5067153;27;89434;-74
2023/04/15 03:46:03;;;;;;;11.55;6.32;;;;;;;;;;5074478;27;88626;-74
2023/04/15 03:48:30;;;;;;;9.48;6.40;;;;;;;;;;5070875;27;89732;-74
2023/04/15 03:50:56;;;;;;;10.52;6.75;;;;;;;;;;5078195;27;88349;-74
2023/04/15 03:53:22;;;;;;;10.68;6.30;;;;;;;;;;5078067;27;88389;-74
2023/04/15 03:55:49;;;;;;;12.43;6.00;;;;;;;;;;5079855;27;88683;-73
2023/04/15 03:58:15;;;;;;;13.00;5.88;;;;;;;;;;5078846;27;89675;-74
2023/04/15 04:00:42;;;;;;;9.38;5.60;;;;;;;;;;5080828;27;92068;-74
2023/04/15 04:03:08;;;;;;;10.38;6.15;;;;;;;;;;5077095;27;91867;-74
2023/04/15 04:05:40;;;;;;;17.77;6.63;;;;;;;;;;5070296;27;88070;-74
2023/04/15 04:08:06;;;;;;;10.30;5.60;;;;;;;;;;5080062;27;88584;-74
2023/04/15 04:10:32;;;;;;;6.63;4.82;;;;;;;;;;5079121;27;89034;-74
2023/04/15 04:12:59;;;;;;;7.82;5.70;;;;;;;;;;5067873;27;88377;-74
2023/04/15 04:15:26;;;;;;;9.00;5.70;;;;;;;;;;5079867;27;89184;-74
2023/04/15 04:17:52;;;;;;;10.85;6.07;;;;;;;;;;5061753;27;89138;-73
2023/04/15 04:20:18;;;;;;;7.75;5.80;;;;;;;;;;5062331;27;88046;-74
2023/04/15 04:22:45;;;;;;;10.70;6.03;;;;;;;;;;5067775;27;89482;-73
2023/04/15 04:25:11;;;;;;;9.30;5.70;;;;;;;;;;5077578;27;88059;-74
2023/04/15 04:27:37;;;;;;;8.68;5.88;;;;;;;;;;5074768;27;88739;-74
2023/04/15 04:30:05;;;;;;;13.23;5.80;;;;;;;;;;5066153;27;87957;-74
2023/04/15 04:32:31;;;;;;;9.85;6.18;;;;;;;;;;5060626;27;88251;-73
2023/04/15 04:34:58;;;;;;;16.55;6.55;;;;;;;;;;5079424;27;89411;-74
2023/04/15 04:37:24;;;;;;;7.40;6.10;;;;;;;;;;5066381;27;88903;-75
2023/04/15 04:39:50;;;;;;;7.95;6.00;;;;;;;;;;5065555;27;88757;-75
2023/04/15 04:42:17;;;;;;;7.97;5.68;;;;;;;;;;5078410;27;88120;-75
2023/04/15 04:44:43;;;;;;;9.43;6.32;;;;;;;;;;5078053;27;88991;-75
2023/04/15 04:47:10;;;;;;;9.00;5.38;;;;;;;;;;5076886;27;88931;-75
2023/04/15 04:49:36;;;;;;;11.90;6.10;;;;;;;;;;5075897;27;89028;-75
2023/04/15 04:52:03;;;;;;;11.85;5.75;;;;;;;;;;5067790;27;88027;-75
2023/04/15 04:54:30;;;;;;;9.82;5.95;;;;;;;;;;5070564;27;87980;-75
2023/04/15 04:56:56;;;;;;;17.73;6.00;;;;;;;;;;5052817;27;88962;-75
2023/04/15 04:59:23;;;;;;;8.88;5.60;;;;;;;;;;5078177;27;88161;-75
2023/04/15 05:01:50;;;;;;;17.05;6.65;;;;;;;;;;5067365;27;89004;-76
2023/04/15 05:04:16;;;;;;;11.38;5.90;;;;;;;;;;5071047;27;88480;-75
2023/04/15 05:06:42;;;;;;;20.35;5.72;;;;;;;;;;5059794;27;89979;-75
2023/04/15 05:09:09;;;;;;;9.98;5.72;;;;;;;;;;5078014;27;89438;-75
2023/04/15 05:11:35;;;;;;;14.90;6.03;;;;;;;;;;5077706;27;88764;-75
2023/04/15 05:14:02;;;;;;;8.27;5.60;;;;;;;;;;5077078;27;89644;-75
2023/04/15 05:16:28;;;;;;;8.40;6.18;;;;;;;;;;5074820;27;89015;-75
2023/04/15 05:18:54;;;;;;;9.65;6.43;;;;;;;;;;5076534;27;88232;-75
2023/04/15 05:21:21;;;;;;;10.85;6.57;;;;;;;;;;5070579;27;88750;-75
2023/04/15 05:23:47;;;;;;;8.90;6.05;;;;;;;;;;5072070;27;89051;-75
2023/04/15 05:26:13;;;;;;;8.57;6.40;;;;;;;;;;5068347;27;88045;-75
2023/04/15 05:28:40;;;;;;;10.27;6.95;;;;;;;;;;5069942;27;93071;-75
2023/04/15 05:31:06;;;;;;;11.38;6.95;;;;;;;;;;5059907;27;88587;-75
2023/04/15 05:33:33;;;;;;;13.55;7.00;;;;;;;;;;5048098;27;88751;-75
2023/04/15 05:35:59;;;;;;;13.02;7.03;;;;;;;;;;5068385;27;89695;-75
2023/04/15 05:38:25;;;;;;;11.25;6.90;;;;;;;;;;5058322;27;88081;-75
2023/04/15 05:40:52;;;;;;;12.80;7.40;;;;;;;;;;5074543;27;88833;-75
2023/04/15 05:43:18;;;;;;;14.27;6.93;;;;;;;;;;5071004;27;88784;-75
2023/04/15 05:45:45;;;;;;;13.27;6.82;;;;;;;;;;5075522;27;88221;-75
2023/04/15 05:48:11;;;;;;;11.05;7.22;;;;;;;;;;5059615;27;90299;-75
2023/04/15 05:50:41;;;;;;;11.63;7.55;;;;;;;;;;5077843;27;89378;-75
2023/04/15 05:53:07;;;;;;;13.70;7.90;;;;;;;;;;5066687;27;88619;-75
2023/04/15 05:55:34;;;;;;;12.05;7.82;;;;;;;;;;5073762;27;89266;-75
2023/04/15 05:58:00;;;;;;;14.43;7.32;;;;;;;;;;5070863;27;87987;-75
2023/04/15 06:00:26;;;;;;;11.77;7.85;;;;;;;;;;5075317;27;88900;-75
2023/04/15 06:02:53;;;;;;;14.80;8.10;;;;;;;;;;5057501;27;89010;-75
2023/04/15 06:05:20;;;;;;;12.57;8.00;;;;;;;;;;5074605;27;88035;-75
2023/04/15 06:07:46;;;;;;;12.85;8.43;;;;;;;;;;5077818;27;88057;-75
2023/04/15 06:10:13;;;;;;;11.35;8.48;;;;;;;;;;5078107;27;89510;-76
2023/04/15 06:12:40;;;;;;;15.95;8.35;;;;;;;;;;5080627;27;88031;-74
2023/04/15 06:15:09;;;;;;;10.93;7.95;;;;;;;;;;5068428;27;89031;-75
2023/04/15 06:17:35;;;;;;;15.85;9.38;;;;;;;;;;5043665;27;87737;-75
2023/04/15 06:20:02;;;;;;;16.58;7.90;;;;;;;;;;5078265;27;89495;-72
2023/04/15 06:22:28;;;;;;;15.50;8.45;;;;;;;;;;5060986;27;88818;-76
2023/04/15 06:24:55;;;;;;;11.82;8.13;;;;;;;;;;5059861;27;88816;-76
2023/04/15 06:27:21;;;;;;;13.43;8.75;;;;;;;;;;5059393;27;89686;-75
2023/04/15 06:29:48;;;;;;;12.18;8.60;;;;;;;;;;5041808;27;89252;-74
2023/04/15 06:32:15;;;;;;;16.52;9.43;;;;;;;;;;5076965;27;88839;-75
2023/04/15 06:34:41;;;;;;;15.73;8.57;;;;;;;;;;5079700;27;88012;-74
2023/04/15 06:37:09;;;;;;;12.55;9.02;;;;;;;;;;5077782;27;88034;-74
2023/04/15 06:39:36;;;;;;;12.20;8.48;;;;;;;;;;5067533;27;89054;-77
2023/04/15 06:42:02;;;;;;;18.45;9.00;;;;;;;;;;5056871;27;88758;-77
2023/04/15 06:44:29;;;;;;;11.98;8.52;;;;;;;;;;5050627;27;88582;-74
2023/04/15 06:46:58;;;;;;;18.13;9.32;;;;;;;;;;5051791;27;88909;-74
2023/04/15 06:49:25;;;;;;;15.27;9.35;;;;;;;;;;5061782;27;90264;-75
2023/04/15 06:51:51;;;;;;;16.13;9.63;;;;;;;;;;5074603;27;88139;-74
2023/04/15 06:54:18;;;;;;;14.45;9.05;;;;;;;;;;5077030;27;90227;-75
2023/04/15 06:56:45;;;;;;;19.67;11.23;;;;;;;;;;5063551;27;89544;-75
2023/04/15 06:59:11;;;;;;;16.23;10.35;;;;;;;;;;5070523;27;90613;-74
2023/04/15 07:01:38;;;;;;;22.50;10.15;;;;;;;;;;5076366;27;89525;-74
2023/04/15 07:04:04;;;;;;;16.85;10.40;;;;;;;;;;5074545;27;90199;-74
2023/04/15 07:06:31;;;;;;;17.45;11.07;;;;;;;;;;5073521;27;89619;-75
2023/04/15 07:08:58;;;;;;;18.35;10.60;;;;;;;;;;5074476;27;90720;-75
2023/04/15 07:11:25;;;;;;;17.70;11.27;;;;;;;;;;5075267;27;90304;-75
2023/04/15 07:13:51;;;;;;;16.30;11.13;;;;;;;;;;5075962;27;89667;-74
2023/04/15 07:16:18;;;;;;;20.42;11.57;;;;;;;;;;5071649;27;90059;-75
2023/04/15 07:18:44;;;;;;;14.15;11.38;;;;;;;;;;5059209;27;90275;-75
2023/04/15 07:21:10;;;;;;;14.10;9.85;;;;;;;;;;5074251;27;89661;-75
2023/04/15 07:23:37;;;;;;;14.82;10.73;;;;;;;;;;5060361;27;90099;-75
2023/04/15 07:26:03;;;;;;;16.42;11.10;;;;;;;;;;5078018;27;89535;-75
2023/04/15 07:28:30;;;;;;;14.80;10.80;;;;;;;;;;5076797;27;89799;-75
2023/04/15 07:30:56;;;;;;;18.75;10.65;;;;;;;;;;5070129;27;90029;-75
2023/04/15 07:33:23;;;;;;;13.00;9.88;;;;;;;;;;5076996;27;90029;-74
2023/04/15 07:35:49;;;;;;;15.57;10.13;;;;;;;;;;5069069;27;89359;-75
2023/04/15 07:38:15;;;;;;;15.40;9.90;;;;;;;;;;5067329;27;89181;-75
2023/04/15 07:40:42;;;;;;;13.50;9.27;;;;;;;;;;5068896;27;88183;-75
2023/04/15 07:43:08;;;;;;;15.60;9.82;;;;;;;;;;5051940;27;88030;-75
2023/04/15 07:45:35;;;;;;;13.40;9.10;;;;;;;;;;5068928;27;88747;-76
2023/04/15 07:48:01;;;;;;;13.00;8.60;;;;;;;;;;5068306;27;89018;-76
2023/04/15 07:50:28;;;;;;;14.20;8.85;;;;;;;;;;5073849;27;88893;-75
2023/04/15 07:52:54;;;;;;;12.30;8.18;;;;;;;;;;5056121;27;88819;-76
2023/04/15 07:55:22;;;;;;;10.05;7.75;;;;;;;;;;5070103;27;88556;-75
2023/04/15 07:57:49;;;;;;;18.73;8.13;;;;;;;;;;5063054;27;88463;-76
2023/04/15 08:00:15;;;;;;;11.15;7.57;;;;;;;;;;5068775;27;88752;-76
2023/04/15 08:02:42;;;;;;;10.43;7.47;;;;;;;;;;5074370;27;89921;-76
2023/04/15 08:05:09;;;;;;;12.32;7.35;;;;;;;;;;5068130;27;89812;-76
2023/04/15 08:07:37;;;;;;;11.18;6.72;;;;;;;;;;5074775;27;89143;-75
2023/04/15 08:10:03;;;;;;;10.60;6.10;;;;;;;;;;5059495;27;89657;-76
2023/04/15 08:12:30;;;;;;;14.63;6.65;;;;;;;;;;5059751;27;89309;-77
2023/04/15 08:14:56;;;;;;;12.05;6.53;;;;;;;;;;5060265;27;89548;-76
2023/04/15 08:17:23;;;;;;;9.77;7.10;;;;;;;;;;5053363;27;88610;-76
2023/04/15 08:19:49;;;;;;;9.00;6.32;;;;;;;;;;5069181;27;88788;-75
2023/04/15 08:22:16;;;;;;;10.43;5.68;;;;;;;;;;5073562;27;89209;-75
2023/04/15 08:24:44;;;;;;;6.68;5.25;;;;;;;;;;5065820;27;88910;-75
2023/04/15 08:27:10;;;;;;;8.82;5.78;;;;;;;;;;5065965;27;89998;-75
2023/04/15 08:29:37;;;;;;;9.07;5.90;;;;;;;;;;5065624;27;88120;-76
2023/04/15 08:32:05;;;;;;;7.38;4.72;;;;;;;;;;5059145;27;88520;-75
2023/04/15 08:34:32;;;;;;;7.97;4.70;;;;;;;;;;5059744;27;88922;-75
2023/04/15 08:36:58;;;;;;;10.15;5.10;;;;;;;;;;5065047;27;88353;-76
2023/04/15 08:39:24;;;;;;;5.18;4.15;;;;;;;;;;5077582;27;88803;-76
2023/04/15 08:41:53;;;;;;;5.88;4.22;;;;;;;;;;5058458;27;88833;-71
2023/04/15 08:44:21;;;;;;;6.72;3.90;;;;;;;;;;5062751;27;87737;-74
2023/04/15 08:46:48;;;;;;;3.67;3.38;;;;;;;;;;5063799;27;89088;-76
2023/04/15 08:49:16;;;;;;;7.57;4.70;;;;;;;;;;5060599;27;88187;-75
2023/04/15 08:51:44;;;;;;;5.00;3.65;;;;;;;;;;5060570;27;91000;-75
2023/04/15 08:54:10;;;;;;;4.22;3.80;;;;;;;;;;5059048;27;89020;-75
2023/04/15 08:56:37;;;;;;;4.93;3.55;;;;;;;;;;5067665;27;89317;-75
2023/04/15 08:59:04;;;;;;;3.40;3.10;;;;;;;;;;5079048;27;88240;-75
2023/04/15 09:01:31;;;;;;;3.47;2.90;;;;;;;;;;5074610;27;90102;-75
2023/04/15 09:03:58;;;;;;;3.30;2.95;;;;;;;;;;5077558;27;88126;-74
2023/04/15 09:06:24;;;;;;;6.38;2.97;;;;;;;;;;5063230;27;88839;-73
2023/04/15 09:08:51;;;;;;;3.92;2.97;;;;;;;;;;5078741;27;87832;-74
2023/04/15 09:11:18;;;;;;;5.70;3.50;;;;;;;;;;5078075;27;87946;-75
2023/04/15 09:13:45;;;;;;;4.35;3.50;;;;;;;;;;5059010;27;89911;-75
2023/04/15 09:16:12;;;;;;;3.65;3.35;;;;;;;;;;5059750;27;88864;-75
2023/04/15 09:18:39;;;;;;;5.30;3.35;;;;;;;;;;5040326;27;89657;-75
2023/04/15 09:21:10;;;;;;;4.72;3.60;;;;;;;;;;5064774;27;89459;-76
2023/04/15 09:23:37;;;;;;;10.90;3.80;;;;;;;;;;5071079;27;89095;-75
2023/04/15 09:26:04;;;;;;;6.88;4.05;;;;;;;;;;5059091;27;88833;-75
2023/04/15 09:28:31;;;;;;;4.65;3.42;;;;;;;;;;5071159;27;89364;-74
2023/04/15 09:30:58;;;;;;;4.68;3.90;;;;;;;;;;5064101;27;88913;-75
2023/04/15 09:33:28;;;;;;;4.63;3.75;;;;;;;;;;5079863;27;89630;-76
2023/04/15 09:35:57;;;;;;;9.48;3.90;;;;;;;;;;5079373;27;87949;-80
2023/04/15 09:38:24;;;;;;;5.67;3.50;;;;;;;;;;5078047;27;88814;-76
2023/04/15 09:40:51;;;;;;;5.30;3.55;;;;;;;;;;5061179;27;92432;-75
2023/04/15 09:43:17;;;;;;;3.92;3.25;;;;;;;;;;5039512;27;90343;-75
2023/04/15 09:45:47;;;;;;;4.28;3.20;;;;;;;;;;5057966;27;88990;-75
2023/04/15 09:48:15;;;;;;;3.58;2.92;;;;;;;;;;5061992;27;88315;-75
2023/04/15 09:50:42;;;;;;;3.30;3.00;;;;;;;;;;5069938;27;88587;-75
2023/04/15 09:53:10;;;;;;;4.28;2.90;;;;;;;;;;5072689;27;90355;-75
2023/04/15 09:55:37;;;;;;;3.38;2.80;;;;;;;;;;5065649;27;90944;-75
2023/04/15 09:58:07;;;;;;;4.05;2.67;;;;;;;;;;5058065;27;88762;-75
2023/04/15 10:00:33;;;;;;;;;;;;;;;;;;5058613;27;89064;-75
2023/04/15 10:03:00;;;;;;;4.75;3.30;;;;;;;;;;5072434;27;118331;-75
2023/04/15 10:05:28;;;;;;;5.15;3.60;;;;;;;;;;5074541;27;89391;-75
2023/04/15 10:07:56;;;;;;;8.13;4.10;;;;;;;;;;5072508;27;89413;-75
2023/04/15 10:10:22;;;;;;;6.40;3.35;;;;;;;;;;5066433;27;88059;-75
2023/04/15 10:12:50;;;;;;;5.20;2.90;;;;;;;;;;5071707;27;88775;-75
2023/04/15 10:15:17;;;;;;;5.20;3.10;;;;;;;;;;5069672;27;89591;-75
2023/04/15 10:17:44;;;;;;;6.93;3.20;;;;;;;;;;5062333;27;89089;-75
2023/04/15 10:20:11;;;;;;;3.22;2.92;;;;;;;;;;5068476;27;90464;-75
2023/04/15 10:22:39;;;;;;;5.25;3.42;;;;;;;;;;5068670;27;88002;-74
2023/04/15 10:25:06;;;;;;;3.45;2.67;;;;;;;;;;5072310;27;88150;-75
2023/04/15 10:27:33;;;;;;;2.92;2.10;;;;;;;;;;5075521;27;90752;-74
2023/04/15 10:29:59;;;;;;;4.43;2.10;;;;;;;;;;5077740;27;89105;-75
2023/04/15 10:32:26;;;;;;;3.28;1.85;;;;;;;;;;5079048;27;89636;-75
2023/04/15 10:34:53;;;;;;;2.83;2.30;;;;;;;;;;5059727;27;88050;-75
2023/04/15 10:37:21;;;;;;;6.90;2.60;;;;;;;;;;5076658;27;88812;-75
2023/04/15 10:39:47;;;;;;;9.02;2.72;;;;;;;;;;5077135;27;89556;-74
2023/04/15 10:42:15;;;;;;;5.97;2.63;;;;;;;;;;5051949;27;90068;-75
2023/04/15 10:44:42;;;;;;;4.28;2.65;;;;;;;;;;5071406;27;88676;-74
2023/04/15 10:47:13;;;;;;;4.35;2.83;;;;;;;;;;5073662;27;87793;-74
2023/04/15 10:49:59;;;;;;;5.10;2.70;;;;;;;;;;5073594;27;88067;-75
2023/04/15 10:52:26;;;;;;;2.95;2.67;;;;;;;;;;5072788;27;88759;-75
2023/04/15 10:55:03;;;;;;;3.28;2.50;;;;;;;;;;5072564;27;89803;-75
2023/04/15 10:57:39;;;;;;;3.08;2.65;;;;;;;;;;5064487;27;89493;-74
2023/04/15 11:00:10;;;;;;;5.15;2.05;;;;;;;;;;5080821;27;88855;-74
2023/04/15 11:02:53;;;;;;;4.60;2.78;;;;;;;;;;5077093;27;88177;-74
2023/04/15 11:05:20;;;;;;;10.43;2.45;;;;;;;;;;5072326;27;89465;-73
2023/04/15 11:07:53;;;;;;;3.17;2.50;;;;;;;;;;5075052;27;89206;-74
2023/04/15 11:10:19;;;;;;;2.63;2.42;;;;;;;;;;5080318;27;88038;-74
2023/04/15 11:12:49;;;;;;;3.65;2.60;;;;;;;;;;5063172;27;88838;-74
2023/04/15 11:15:30;;;;;;;3.67;2.10;;;;;;;;;;5080068;27;89388;-76
2023/04/15 11:17:58;;;;;;;2.67;2.17;;;;;;;;;;5077907;27;88090;-73
2023/04/15 11:20:24;;;;;;;3.28;2.20;;;;;;;;;;5078665;27;89832;-74
2023/04/15 11:22:52;;;;;;;2.58;1.98;;;;;;;;;;5042494;27;88157;-75
2023/04/15 11:25:38;;;;;;;3.55;2.15;;;;;;;;;;5067668;27;88582;-76
2023/04/15 11:28:05;;;;;;;4.95;1.98;;;;;;;;;;5066066;27;89076;-76
2023/04/15 11:30:32;;;;;;;2.35;1.80;;;;;;;;;;5061043;27;87951;-76
2023/04/15 11:33:00;;;;;;;2.90;1.90;;;;;;;;;;5069360;27;89977;-75
2023/04/15 11:35:27;;;;;;;2.45;1.52;;;;;;;;;;5082718;27;89394;-75
2023/04/15 11:37:54;;;;;;;2.97;1.90;;;;;;;;;;5084108;27;87897;-75
2023/04/15 11:40:24;;;;;;;3.53;1.85;;;;;;;;;;5086099;27;88266;-76
2023/04/15 11:43:23;;;;;;;3.65;2.00;;;;;;;;;;5079110;27;88453;-75
2023/04/15 11:45:54;;;;;;;2.97;2.13;;;;;;;;;;5037317;27;89314;-74
2023/04/15 11:48:22;;;;;;;7.43;2.00;;;;;;;;;;5081793;27;89052;-75
2023/04/15 11:51:05;;;;;;;3.47;1.85;;;;;;;;;;5090642;27;88103;-74
2023/04/15 11:53:39;;;;;;;9.45;2.10;;;;;;;;;;5100997;27;87444;-75
2023/04/15 11:56:07;;;;;;;1.88;1.65;;;;;;;;;;5100083;27;87924;-74
2023/04/15 11:58:36;;;;;;;2.53;1.80;;;;;;;;;;5080862;27;88293;-75
2023/04/15 12:01:03;;;;;;;2.65;1.98;;;;;;;;;;5102356;27;90894;-73
2023/04/15 12:03:31;;;;;;;4.68;2.30;;;;;;;;;;5106608;27;87363;-73
2023/04/15 12:06:12;;;;;;;4.07;2.17;;;;;;;;;;5105181;27;87831;-73
2023/04/15 12:08:47;;;;;;;4.68;2.47;;;;;;;;;;5106316;27;89328;-73
2023/04/15 12:11:26;;;;;;;4.68;1.95;;;;;;;;;;5085209;27;87830;-73
2023/04/15 12:13:54;;;;;;;6.75;2.30;;;;;;;;;;5083801;27;88537;-73
2023/04/15 12:16:21;;;;;;;6.85;2.10;;;;;;;;;;5087135;27;88216;-73
2023/04/15 12:18:51;;;;;;;4.93;2.40;;;;;;;;;;5104566;27;88001;-73
2023/04/15 12:21:28;;;;;;;2.72;1.80;;;;;;;;;;5104279;27;87955;-73
2023/04/15 12:23:55;;;;;;;2.50;1.45;;;;;;;;;;5107965;27;87729;-73
2023/04/15 12:26:26;;;;;;;2.88;1.60;;;;;;;;;;5103849;27;87802;-73
2023/04/15 12:28:53;;;;;;;2.92;1.60;;;;;;;;;;5098181;27;87170;-74
2023/04/15 12:31:19;;;;;;;2.67;1.35;;;;;;;;;;5092924;27;88010;-74
2023/04/15 12:33:47;;;;;;;3.40;1.10;;;;;;;;;;5090895;27;89834;-74
2023/04/15 12:36:13;;;;;;;4.85;1.70;;;;;;;;;;5074197;27;89433;-74
2023/04/15 12:38:39;;;;;;;4.82;1.33;;;;;;;;;;5095539;27;87888;-74
2023/04/15 12:41:05;;;;;;;3.40;1.23;;;;;;;;;;5076279;27;88007;-74
2023/04/15 12:43:32;;;;;;;1.67;1.30;;;;;;;;;;5094782;27;90165;-74
2023/04/15 12:45:58;;;;;;;5.18;1.60;;;;;;;;;;5098244;27;88052;-74
2023/04/15 12:48:25;;;;;;;4.93;1.50;;;;;;;;;;5076242;27;87987;-75
2023/04/15 12:50:51;;;;;;;6.22;1.85;;;;;;;;;;5061440;27;88697;-73
2023/04/15 12:53:17;;;;;;;2.58;1.52;;;;;;;;;;5061789;27;88886;-74
2023/04/15 12:55:44;;;;;;;2.17;1.65;;;;;;;;;;5059941;27;88072;-74
2023/04/15 12:58:10;;;;;;;4.00;1.80;;;;;;;;;;5060059;27;88292;-74
2023/04/15 13:00:37;;;;;;;3.05;1.65;;;;;;;;;;5058862;27;88755;-73
2023/04/15 13:03:03;;;;;;;3.55;1.38;;;;;;;;;;5059532;27;88036;-74
2023/04/15 13:05:32;;;;;;;2.72;1.65;;;;;;;;;;5059050;27;88139;-73
2023/04/15 13:07:58;;;;;;;5.03;1.20;;;;;;;;;;5075631;27;87950;-74
2023/04/15 13:10:25;;;;;;;1.67;1.33;;;;;;;;;;5076909;27;88153;-74
2023/04/15 13:12:52;;;;;;;3.58;1.52;;;;;;;;;;5058836;27;88799;-73
2023/04/15 13:15:21;;;;;;;3.72;1.27;;;;;;;;;;5058824;27;89010;-74
2023/04/15 13:17:47;;;;;;;2.92;1.65;;;;;;;;;;5074376;27;87838;-74
2023/04/15 13:20:14;;;;;;;3.60;1.60;;;;;;;;;;5079058;27;88137;-73
2023/04/15 13:22:40;;;;;;;6.03;1.70;;;;;;;;;;5059398;27;89339;-73
2023/04/15 13:25:07;;;;;;;2.97;1.50;;;;;;;;;;5057928;27;88750;-73
2023/04/15 13:27:33;;;;;;;4.85;1.90;;;;;;;;;;5058454;27;89520;-73
2023/04/15 13:30:00;;;;;;;3.50;1.58;;;;;;;;;;5061182;27;89571;-73
2023/04/15 13:32:26;;;;;;;5.68;1.70;;;;;;;;;;5058441;27;89115;-74
2023/04/15 13:34:53;;;;;;;6.35;1.70;;;;;;;;;;5058238;27;89395;-73
2023/04/15 13:37:19;;;;;;;2.22;1.50;;;;;;;;;;5058280;27;88040;-74
2023/04/15 13:39:46;;;;;;;4.35;1.40;;;;;;;;;;5058220;27;88085;-74
2023/04/15 13:42:12;;;;;;;1.65;1.17;;;;;;;;;;5041039;27;89600;-73
2023/04/15 13:44:38;;;;;;;7.28;1.70;;;;;;;;;;5057867;27;88116;-73
2023/04/15 13:47:05;;;;;;;4.55;1.50;;;;;;;;;;5058932;27;90049;-73
2023/04/15 13:49:31;;;;;;;2.10;1.42;;;;;;;;;;5057683;27;89691;-73
2023/04/15 13:51:58;;;;;;;1.48;1.30;;;;;;;;;;5061049;27;87978;-73
2023/04/15 13:54:24;;;;;;;7.03;1.88;;;;;;;;;;5058487;27;89216;-73
2023/04/15 13:57:03;;;;;;;4.25;1.40;;;;;;;;;;5058060;27;88799;-73
2023/04/15 13:59:30;;;;;;;2.83;1.35;;;;;;;;;;5057972;27;87986;-73
2023/04/15 14:01:56;;;;;;;3.63;1.73;;;;;;;;;;5067070;27;89133;-73
2023/04/15 14:04:22;;;;;;;3.92;1.52;;;;;;;;;;5078814;27;88400;-74
2023/04/15 14:06:49;;;;;;;4.18;1.10;;;;;;;;;;5078900;27;88756;-73
2023/04/15 14:09:16;;;;;;;3.00;1.33;;;;;;;;;;5078927;27;90023;-73
2023/04/15 14:11:42;;;;;;;2.28;1.40;;;;;;;;;;5081738;27;89697;-73
2023/04/15 14:14:08;;;;;;;3.78;1.10;;;;;;;;;;5077677;27;89748;-73
2023/04/15 14:16:35;;;;;;;4.28;1.38;;;;;;;;;;5073361;27;89457;-74
2023/04/15 14:19:01;;;;;;;3.95;1.13;;;;;;;;;;5057743;27;88953;-74
2023/04/15 14:21:28;;;;;;;2.83;1.30;;;;;;;;;;5065806;27;89128;-74
2023/04/15 14:23:55;;;;;;;8.10;1.50;;;;;;;;;;5078183;27;88042;-74
2023/04/15 14:26:21;;;;;;;4.90;1.35;;;;;;;;;;5064589;27;88759;-73
2023/04/15 14:28:47;;;;;;;4.22;1.30;;;;;;;;;;5077609;27;89392;-73
2023/04/15 14:31:14;;;;;;;4.40;1.33;;;;;;;;;;5078660;27;88076;-74
2023/04/15 14:33:40;;;;;;;6.55;1.73;;;;;;;;;;5080502;27;88404;-73
2023/04/15 14:36:07;;;;;;;4.38;1.58;;;;;;;;;;5078418;27;88028;-72